This is the latest recevied weather packets stored in our database for station/object N8DNY-13. If no packets are shown the sender has not sent any weather packets the latest 10 day(s).
| Time | Temp. | Humidity | Pressure | Rain* | Wind** | Luminosity | Snow |
|---|---|---|---|---|---|---|---|
| 1777993740 | 16.67° C | 71% | 1011.6 hPa | 0 mm | - | 179 W/m² | - |
| 1777991030 | 16.67° C | 74% | 1010.6 hPa | 0 mm | - | 121 W/m² | - |
| 1777984700 | 16.11° C | 78% | 1009.2 hPa | 0 mm | - | 264 W/m² | - |
| 1777967500 | 16.11° C | 77% | 1006.2 hPa | 0 mm | - | 0 W/m² | - |
| 1777966595 | 17.22° C | 69% | 1006 hPa | 0 mm | - | 0 W/m² | - |
| 1777962070 | 16.67° C | 70% | 1006.5 hPa | 0 mm | - | 0 W/m² | - |
| 1777952103 | 19.44° C | 60% | 1006.1 hPa | 0 mm | - | 0 W/m² | - |
| 1777942150 | 22.22° C | 47% | 1005.9 hPa | 0 mm | - | 0 W/m² | - |
| 1777937635 | 23.33° C | 45% | 1005 hPa | 0 mm | - | 46 W/m² | - |
| 1777930400 | 26.11° C | 42% | 1005.2 hPa | 0 mm | - | 335 W/m² | - |
| 1777919505 | 25.56° C | 40% | 1007.5 hPa | 0 mm | - | 759 W/m² | - |
| 1777912290 | 22.78° C | 50% | 1009.2 hPa | 0 mm | - | 777 W/m² | - |
| 1777908690 | 20.56° C | 51% | 1009.7 hPa | 0 mm | - | 702 W/m² | - |
| 1777904158 | 18.89° C | 54% | 1009.9 hPa | 0 mm | - | 551 W/m² | - |
| 1777903277 | 17.78° C | 57% | 1010.2 hPa | 0 mm | - | 502 W/m² | - |
| 1777902355 | 17.22° C | 57% | 1010.4 hPa | 0 mm | - | 449 W/m² | - |
| 1777899634 | 15° C | 61% | 1010.9 hPa | 0 mm | - | 294 W/m² | - |
| 1777889660 | 10° C | 72% | 1010.5 hPa | 0 mm | - | 0 W/m² | - |
| 1777886951 | 10° C | 71% | 1010.5 hPa | 0 mm | - | 0 W/m² | - |
| 1777871540 | 11.67° C | 61% | 1013.4 hPa | 0 mm | - | 0 W/m² | - |
| 1777868830 | 11.67° C | 62% | 1013.6 hPa | 0 mm | - | 0 W/m² | - |
| 1777867930 | 11.67° C | 62% | 1013.9 hPa | 0 mm | - | 0 W/m² | - |
| 1777865210 | 11.11° C | 67% | 1014.5 hPa | 0 mm | - | 0 W/m² | - |
| 1777862490 | 11.11° C | 68% | 1014.8 hPa | 0 mm | - | 0 W/m² | - |
| 1777855239 | 11.67° C | 65% | 1015.1 hPa | 0 mm | - | 0 W/m² | - |
* Rain latest hour (hover to see other rain measurements)
** Current wind speed in m/s (hover to see current wind gust speed)